createdAt,value
2022-09-12T00:01:52.098Z,9.43
2022-09-12T00:04:20.825Z,9.45
2022-09-12T00:06:50.755Z,9.37
2022-09-12T00:09:19.055Z,9.21
2022-09-12T00:11:49.046Z,9.10
2022-09-12T00:14:24.681Z,8.98
2022-09-12T00:16:53.009Z,8.88
2022-09-12T00:19:25.573Z,8.79
2022-09-12T00:21:54.620Z,8.74
2022-09-12T00:24:25.436Z,8.67
2022-09-12T00:26:58.995Z,8.63
2022-09-12T00:29:28.244Z,8.75
2022-09-12T00:31:58.813Z,8.83
2022-09-12T00:34:27.714Z,8.80
2022-09-12T00:36:58.865Z,8.67
2022-09-12T00:39:27.656Z,8.61
2022-09-12T00:41:57.622Z,8.74
2022-09-12T00:44:47.020Z,8.69
2022-09-12T00:47:20.710Z,8.70
2022-09-12T00:49:53.813Z,8.73
2022-09-12T00:52:28.662Z,8.74
2022-09-12T00:55:02.124Z,8.67
2022-09-12T00:57:36.888Z,8.58
2022-09-12T01:00:15.967Z,8.46
2022-09-12T01:02:48.324Z,8.41
2022-09-12T01:05:22.687Z,8.35
2022-09-12T01:07:53.795Z,8.28
2022-09-12T01:10:26.158Z,8.27
2022-09-12T01:12:56.664Z,8.31
2022-09-12T01:15:27.513Z,8.21
2022-09-12T01:18:11.873Z,8.11
2022-09-12T01:21:08.927Z,8.06
2022-09-12T01:24:14.571Z,8.07
2022-09-12T01:27:16.886Z,8.13
2022-09-12T01:30:18.587Z,8.02
2022-09-12T01:33:04.367Z,7.95
2022-09-12T01:35:47.605Z,7.91
2022-09-12T01:38:26.487Z,7.89
2022-09-12T01:41:12.984Z,7.86
2022-09-12T01:43:48.537Z,7.82
2022-09-12T01:46:24.481Z,7.82
2022-09-12T01:48:59.333Z,7.78
2022-09-12T01:51:34.083Z,7.86
2022-09-12T01:54:16.583Z,7.85
2022-09-12T01:56:47.209Z,7.75
2022-09-12T01:59:22.066Z,7.71
2022-09-12T02:01:57.655Z,7.79
2022-09-12T02:04:34.161Z,7.94
2022-09-12T02:07:12.413Z,7.87
2022-09-12T02:09:46.529Z,7.75
2022-09-12T02:12:23.311Z,7.70
2022-09-12T02:14:57.073Z,7.64
2022-09-12T02:17:28.110Z,7.64
2022-09-12T02:20:03.563Z,7.75
2022-09-12T02:22:35.009Z,7.73
2022-09-12T02:25:06.480Z,7.74
2022-09-12T02:27:42.380Z,7.61
2022-09-12T02:30:14.564Z,7.52
2022-09-12T02:32:58.531Z,7.47
2022-09-12T02:35:40.424Z,7.43
2022-09-12T02:38:14.627Z,7.39
2022-09-12T02:40:45.175Z,7.32
2022-09-12T02:43:13.954Z,7.31
2022-09-12T02:45:48.108Z,7.28
2022-09-12T02:48:24.147Z,7.29
2022-09-12T02:50:53.334Z,7.36
2022-09-12T02:53:23.569Z,7.39
2022-09-12T02:55:53.008Z,7.47
2022-09-12T02:58:27.295Z,7.40
2022-09-12T03:01:05.664Z,7.27
2022-09-12T03:03:55.355Z,7.16
2022-09-12T03:06:32.547Z,7.07
2022-09-12T03:09:09.148Z,7.02
2022-09-12T03:12:04.468Z,7.03
2022-09-12T03:15:01.706Z,7.00
2022-09-12T03:17:44.153Z,7.00
2022-09-12T03:20:22.096Z,6.98
2022-09-12T03:22:59.123Z,6.94
2022-09-12T03:25:37.954Z,6.97
2022-09-12T03:28:10.515Z,6.97
2022-09-12T03:30:48.813Z,7.09
2022-09-12T03:33:20.041Z,7.10
2022-09-12T03:35:52.149Z,7.16
2022-09-12T03:38:21.558Z,7.16
2022-09-12T03:40:54.959Z,7.09
2022-09-12T03:43:27.846Z,6.99
2022-09-12T03:45:57.971Z,7.00
2022-09-12T03:48:26.500Z,6.92
2022-09-12T03:51:01.712Z,6.80
2022-09-12T03:53:31.048Z,6.76
2022-09-12T03:56:07.921Z,6.70
2022-09-12T03:58:37.202Z,6.70
2022-09-12T04:01:16.579Z,6.67
2022-09-12T04:03:47.116Z,6.61
2022-09-12T04:06:19.661Z,6.59
2022-09-12T04:08:50.628Z,6.56
2022-09-12T04:11:21.146Z,6.54
2022-09-12T04:13:50.045Z,6.52
2022-09-12T04:16:19.643Z,6.48
2022-09-12T04:18:54.452Z,6.44
2022-09-12T04:21:28.500Z,6.51
2022-09-12T04:24:00.844Z,6.57
2022-09-12T04:26:33.716Z,6.55
2022-09-12T04:29:02.470Z,6.52
2022-09-12T04:31:31.463Z,6.49
2022-09-12T04:34:02.764Z,6.49
2022-09-12T04:36:36.095Z,6.48
2022-09-12T04:39:06.469Z,6.46
2022-09-12T04:41:38.027Z,6.47
2022-09-12T04:44:08.921Z,6.44
2022-09-12T04:46:41.100Z,6.42
2022-09-12T04:49:10.499Z,6.46
2022-09-12T04:51:43.579Z,6.62
2022-09-12T04:54:16.755Z,6.69
2022-09-12T04:56:47.347Z,6.68
2022-09-12T04:59:18.211Z,6.74
2022-09-12T05:01:48.636Z,6.82
2022-09-12T05:04:17.509Z,6.80
2022-09-12T05:06:48.337Z,6.78
2022-09-12T05:09:17.737Z,6.77
2022-09-12T05:12:03.905Z,6.89
2022-09-12T05:14:34.070Z,6.96
2022-09-12T05:17:02.966Z,7.01
2022-09-12T05:19:32.949Z,7.05
2022-09-12T05:22:03.148Z,7.10
2022-09-12T05:24:32.710Z,7.13
2022-09-12T05:27:01.175Z,7.18
2022-09-12T05:29:40.353Z,7.27
2022-09-12T05:32:09.794Z,7.37
2022-09-12T05:34:38.853Z,7.44
2022-09-12T05:37:13.190Z,7.55
2022-09-12T05:39:41.754Z,7.69
2022-09-12T05:42:13.707Z,7.79
2022-09-12T05:44:45.427Z,7.94
2022-09-12T05:47:13.870Z,8.14
2022-09-12T05:49:43.561Z,8.37
2022-09-12T05:52:16.252Z,8.57
2022-09-12T05:54:57.825Z,8.73
2022-09-12T05:57:26.251Z,8.85
2022-09-12T05:59:54.535Z,8.88
2022-09-12T06:02:23.212Z,8.92
2022-09-12T06:04:54.901Z,8.97
2022-09-12T06:07:24.996Z,9.01
2022-09-12T06:09:54.151Z,9.03
2022-09-12T06:12:22.597Z,9.09
2022-09-12T06:14:51.779Z,9.21
2022-09-12T06:17:20.834Z,9.29
2022-09-12T06:19:50.410Z,9.31
2022-09-12T06:22:19.359Z,9.48
2022-09-12T06:24:49.128Z,9.63
2022-09-12T06:27:19.433Z,9.82
2022-09-12T06:29:47.855Z,10.02
2022-09-12T06:32:16.849Z,10.20
2022-09-12T06:34:49.143Z,10.38
2022-09-12T06:37:19.948Z,10.65
2022-09-12T06:39:54.116Z,10.90
2022-09-12T06:42:22.606Z,11.02
2022-09-12T06:44:51.317Z,11.28
2022-09-12T06:50:06.907Z,12.24
2022-09-12T06:52:36.630Z,12.95
2022-09-12T06:55:09.318Z,13.43
2022-09-12T06:57:39.117Z,13.82
2022-09-12T07:00:11.887Z,13.61
2022-09-12T07:02:42.419Z,13.98
2022-09-12T07:05:12.129Z,14.55
2022-09-12T07:07:40.662Z,15.50
2022-09-12T07:10:12.729Z,16.56
2022-09-12T07:12:41.438Z,17.80
2022-09-12T07:15:24.193Z,18.86
2022-09-12T07:17:52.832Z,19.74
2022-09-12T07:20:23.257Z,20.57
2022-09-12T07:22:52.520Z,21.65
2022-09-12T07:25:22.733Z,22.49
2022-09-12T07:27:51.349Z,23.43
2022-09-12T07:30:21.313Z,22.50
2022-09-12T07:32:53.956Z,23.30
2022-09-12T07:35:23.742Z,24.30
2022-09-12T07:37:58.070Z,25.01
2022-09-12T07:40:29.912Z,25.65
2022-09-12T07:42:59.749Z,26.01
2022-09-12T07:45:31.693Z,26.62
2022-09-12T07:48:01.036Z,26.45
2022-09-12T07:50:29.401Z,25.82
2022-09-12T07:53:02.813Z,26.06
2022-09-12T07:55:36.247Z,25.89
2022-09-12T07:58:05.374Z,25.34
2022-09-12T08:00:38.052Z,24.65
2022-09-12T08:03:09.156Z,23.33
2022-09-12T08:05:42.899Z,23.60
2022-09-12T08:08:12.173Z,23.16
2022-09-12T08:10:42.624Z,21.30
2022-09-12T08:13:11.961Z,21.26
2022-09-12T08:16:03.853Z,20.70
2022-09-12T08:18:38.956Z,20.44
2022-09-12T08:21:11.029Z,19.93
2022-09-12T08:23:43.354Z,19.47
2022-09-12T08:26:14.445Z,18.90
2022-09-12T08:28:48.093Z,18.63
2022-09-12T08:31:19.324Z,20.80
2022-09-12T08:33:48.442Z,23.40
2022-09-12T08:36:19.786Z,24.94
2022-09-12T08:38:50.776Z,26.47
2022-09-12T08:41:32.864Z,26.68
2022-09-12T08:44:15.946Z,24.82
2022-09-12T08:46:58.188Z,23.23
2022-09-12T08:49:31.242Z,22.04
2022-09-12T08:52:05.190Z,22.15
2022-09-12T08:54:41.699Z,21.77
2022-09-12T08:57:13.130Z,21.24
2022-09-12T08:59:45.227Z,20.67
2022-09-12T09:02:34.640Z,20.20
2022-09-12T09:05:13.775Z,19.81
2022-09-12T09:08:12.062Z,19.42
2022-09-12T09:10:50.589Z,19.68
2022-09-12T09:13:52.668Z,20.93
2022-09-12T09:16:28.470Z,20.66
2022-09-12T09:19:02.511Z,20.14
2022-09-12T09:21:36.739Z,19.75
2022-09-12T09:24:12.969Z,19.51
2022-09-12T09:26:47.929Z,20.06
2022-09-12T09:29:20.917Z,21.29
2022-09-12T09:31:53.727Z,23.78
2022-09-12T09:34:26.191Z,23.74
2022-09-12T09:37:44.570Z,24.68
2022-09-12T09:40:24.901Z,25.98
2022-09-12T09:43:10.281Z,27.50
2022-09-12T09:45:45.806Z,28.16
2022-09-12T09:48:23.654Z,27.49
2022-09-12T09:50:53.120Z,28.43
2022-09-12T09:53:37.556Z,28.13
2022-09-12T09:56:14.752Z,27.06
2022-09-12T09:58:53.837Z,26.57
2022-09-12T10:01:29.436Z,26.49
2022-09-12T10:04:01.621Z,26.24
2022-09-12T10:06:34.654Z,24.48
2022-09-12T10:09:25.712Z,24.08
2022-09-12T10:11:56.793Z,23.81
2022-09-12T10:14:40.087Z,24.08
2022-09-12T10:17:33.787Z,24.76
2022-09-12T10:20:22.706Z,24.51
2022-09-12T10:22:51.345Z,23.90
2022-09-12T10:25:22.837Z,23.89
2022-09-12T10:27:55.737Z,24.42
2022-09-12T10:30:29.246Z,25.07
2022-09-12T10:33:10.397Z,26.06
2022-09-12T10:35:51.585Z,26.74
2022-09-12T10:38:24.805Z,26.94
2022-09-12T10:41:06.845Z,26.84
2022-09-12T10:43:38.216Z,25.94
2022-09-12T10:46:30.939Z,25.98
2022-09-12T10:49:23.798Z,25.41
2022-09-12T10:51:56.639Z,24.76
2022-09-12T10:54:28.005Z,24.96
2022-09-12T10:57:33.706Z,24.11
2022-09-12T11:00:17.627Z,24.15
2022-09-12T11:02:59.701Z,24.51
2022-09-12T11:05:40.417Z,25.04
2022-09-12T11:08:19.611Z,25.06
2022-09-12T11:10:57.302Z,24.74
2022-09-12T11:13:37.146Z,24.05
2022-09-12T11:16:18.854Z,23.69
2022-09-12T11:19:03.910Z,23.29
2022-09-12T11:21:49.397Z,23.12
2022-09-12T11:24:37.645Z,23.14
2022-09-12T11:27:25.597Z,23.53
2022-09-12T11:30:03.539Z,23.70
2022-09-12T11:32:50.605Z,23.21
2022-09-12T11:35:24.925Z,23.52
2022-09-12T11:38:08.574Z,23.85
2022-09-12T11:40:42.956Z,23.91
2022-09-12T11:43:23.947Z,23.36
2022-09-12T11:45:54.844Z,22.77
2022-09-12T11:48:36.178Z,22.58
2022-09-12T11:51:10.015Z,22.89
2022-09-12T11:53:42.929Z,23.13
2022-09-12T11:56:15.716Z,23.25
2022-09-12T11:58:47.923Z,22.87
2022-09-12T12:01:22.106Z,23.05
2022-09-12T12:03:52.785Z,22.81
2022-09-12T12:06:27.343Z,22.18
2022-09-12T12:08:56.142Z,22.39
2022-09-12T12:11:32.210Z,22.19
2022-09-12T12:14:04.719Z,22.73
2022-09-12T12:16:38.841Z,23.31
2022-09-12T12:19:24.755Z,23.73
2022-09-12T12:21:53.852Z,23.81
2022-09-12T12:24:25.142Z,22.58
2022-09-12T12:27:04.489Z,23.23
2022-09-12T12:29:44.252Z,23.71
2022-09-12T12:32:25.301Z,24.18
2022-09-12T12:35:03.812Z,24.50
2022-09-12T12:37:54.195Z,23.86
2022-09-12T12:40:26.970Z,24.60
2022-09-12T12:43:07.785Z,24.86
2022-09-12T12:46:05.301Z,24.96
2022-09-12T12:48:46.366Z,24.72
2022-09-12T12:51:49.854Z,24.12
2022-09-12T12:54:53.979Z,24.26
2022-09-12T12:57:40.113Z,24.53
2022-09-12T13:00:27.819Z,25.13
2022-09-12T13:03:03.240Z,25.22
2022-09-12T13:05:42.584Z,24.97
2022-09-12T13:08:25.227Z,24.49
2022-09-12T13:10:57.616Z,24.24
2022-09-12T13:13:32.111Z,24.19
2022-09-12T13:16:00.875Z,24.16
2022-09-12T13:18:35.891Z,23.82
2022-09-12T13:21:14.640Z,23.47
2022-09-12T13:23:43.547Z,23.51
2022-09-12T13:26:14.156Z,23.66
2022-09-12T13:28:43.681Z,23.84
2022-09-12T13:31:25.155Z,23.79
2022-09-12T13:33:57.105Z,23.71
2022-09-12T13:36:51.149Z,23.81
2022-09-12T13:39:25.105Z,23.57
2022-09-12T13:42:19.226Z,23.53
2022-09-12T13:44:53.070Z,23.35
2022-09-12T13:47:28.631Z,23.31
2022-09-12T13:49:58.775Z,23.23
2022-09-12T13:52:35.571Z,22.64
2022-09-12T13:55:29.541Z,22.78
2022-09-12T13:58:00.659Z,22.66
2022-09-12T14:00:32.318Z,22.62
2022-09-12T14:03:43.198Z,22.55
2022-09-12T14:06:13.613Z,22.81
2022-09-12T14:08:44.718Z,22.95
2022-09-12T14:11:22.940Z,22.97
2022-09-12T14:13:52.887Z,22.80
2022-09-12T14:16:23.453Z,22.95
2022-09-12T14:18:54.411Z,23.19
2022-09-12T14:21:35.402Z,23.37
2022-09-12T14:24:08.687Z,23.33
2022-09-12T14:26:40.686Z,22.91
2022-09-12T14:29:13.994Z,22.08
2022-09-12T14:31:45.751Z,22.23
2022-09-12T14:34:17.296Z,22.33
2022-09-12T14:36:49.128Z,22.30
2022-09-12T14:39:28.832Z,22.12
2022-09-12T14:42:07.442Z,22.51
2022-09-12T14:44:37.371Z,22.96
2022-09-12T14:47:21.282Z,23.58
2022-09-12T14:49:51.724Z,24.27
2022-09-12T14:52:30.054Z,25.55
2022-09-12T14:55:02.201Z,26.67
2022-09-12T14:57:39.075Z,27.12
2022-09-12T15:00:24.384Z,25.61
2022-09-12T15:02:54.901Z,25.79
2022-09-12T15:05:29.037Z,26.27
2022-09-12T15:08:02.011Z,24.87
2022-09-12T15:10:39.384Z,24.38
2022-09-12T15:13:20.939Z,23.35
2022-09-12T15:15:52.694Z,22.72
2022-09-12T15:18:25.111Z,22.35
2022-09-12T15:20:57.060Z,21.86
2022-09-12T15:23:34.128Z,21.67
2022-09-12T15:26:07.764Z,21.60
2022-09-12T15:28:36.175Z,21.27
2022-09-12T15:31:13.016Z,21.11
2022-09-12T15:33:42.835Z,21.11
2022-09-12T15:36:18.239Z,21.09
2022-09-12T15:38:47.832Z,21.06
2022-09-12T15:41:20.022Z,20.97
2022-09-12T15:43:51.867Z,21.35
2022-09-12T15:46:20.716Z,22.02
2022-09-12T15:48:48.929Z,22.95
2022-09-12T15:51:18.906Z,23.64
2022-09-12T15:53:48.723Z,23.88
2022-09-12T15:56:22.678Z,23.35
2022-09-12T15:59:00.009Z,23.05
2022-09-12T16:01:30.321Z,22.33
2022-09-12T16:03:59.381Z,21.61
2022-09-12T16:06:37.014Z,21.04
2022-09-12T16:09:07.170Z,20.75
2022-09-12T16:11:37.728Z,20.55
2022-09-12T16:14:09.424Z,20.34
2022-09-12T16:16:37.669Z,20.23
2022-09-12T16:19:06.967Z,20.11
2022-09-12T16:21:35.275Z,20.03
2022-09-12T16:24:04.073Z,19.85
2022-09-12T16:26:32.474Z,19.74
2022-09-12T16:29:02.296Z,19.66
2022-09-12T16:31:31.681Z,19.48
2022-09-12T16:34:00.134Z,19.23
2022-09-12T16:36:28.816Z,19.11
2022-09-12T16:39:00.055Z,19.02
2022-09-12T16:41:28.787Z,18.81
2022-09-12T16:43:57.315Z,18.69
2022-09-12T16:46:29.924Z,18.59
2022-09-12T16:48:59.524Z,18.52
2022-09-12T16:51:29.713Z,18.44
2022-09-12T16:54:00.852Z,18.36
2022-09-12T16:56:30.013Z,18.26
2022-09-12T16:58:59.174Z,18.26
2022-09-12T17:01:29.513Z,18.19
2022-09-12T17:03:59.401Z,18.11
2022-09-12T17:06:29.604Z,18.01
2022-09-12T17:09:02.910Z,18.00
2022-09-12T17:11:33.401Z,17.93
2022-09-12T17:14:05.402Z,17.87
2022-09-12T17:16:38.615Z,17.79
2022-09-12T17:19:07.826Z,17.73
2022-09-12T17:21:37.185Z,17.65
2022-09-12T17:24:06.501Z,17.55
2022-09-12T17:26:35.243Z,17.44
2022-09-12T17:29:03.627Z,17.36
2022-09-12T17:31:32.707Z,17.31
2022-09-12T17:34:04.197Z,17.25
2022-09-12T17:36:33.260Z,17.19
2022-09-12T17:39:03.610Z,17.15
2022-09-12T17:41:33.290Z,17.16
2022-09-12T17:44:07.580Z,17.16
2022-09-12T17:46:38.391Z,17.15
2022-09-12T17:49:10.713Z,17.13
2022-09-12T17:51:39.187Z,17.09
2022-09-12T17:54:09.356Z,17.05
2022-09-12T17:56:38.273Z,17.02
2022-09-12T17:59:08.209Z,16.98
2022-09-12T18:01:54.144Z,16.95
2022-09-12T18:04:23.830Z,16.90
2022-09-12T18:06:52.974Z,16.81
2022-09-12T18:09:23.409Z,16.74
2022-09-12T18:11:53.314Z,16.67
2022-09-12T18:14:24.938Z,16.63
2022-09-12T18:16:53.796Z,16.57
2022-09-12T18:19:23.654Z,16.53
2022-09-12T18:21:56.126Z,16.48
2022-09-12T18:24:24.673Z,16.40
2022-09-12T18:26:52.943Z,16.32
2022-09-12T18:29:21.639Z,16.24
2022-09-12T18:31:50.684Z,16.19
2022-09-12T18:34:19.906Z,16.16
2022-09-12T18:36:54.309Z,16.17
2022-09-12T18:39:26.900Z,16.15
2022-09-12T18:41:57.353Z,16.13
2022-09-12T18:44:28.480Z,16.06
2022-09-12T18:46:57.192Z,16.03
2022-09-12T18:49:25.769Z,16.03
2022-09-12T18:51:59.676Z,16.03
2022-09-12T18:54:31.828Z,16.05
2022-09-12T18:57:01.778Z,16.07
2022-09-12T18:59:30.184Z,16.07
2022-09-12T19:01:58.703Z,16.11
2022-09-12T19:04:27.162Z,16.15
2022-09-12T19:06:58.292Z,16.18
2022-09-12T19:09:26.882Z,16.23
2022-09-12T19:11:55.245Z,16.28
2022-09-12T19:14:26.203Z,16.26
2022-09-12T19:16:55.129Z,16.25
2022-09-12T19:19:23.523Z,16.22
2022-09-12T19:21:54.212Z,16.18
2022-09-12T19:24:24.730Z,16.19
2022-09-12T19:26:53.017Z,16.17
2022-09-12T19:29:21.740Z,16.19
2022-09-12T19:31:53.038Z,16.19
2022-09-12T19:34:21.441Z,16.20
2022-09-12T19:36:57.297Z,16.17
2022-09-12T19:39:28.350Z,16.16
2022-09-12T19:41:57.143Z,16.14
2022-09-12T19:44:27.631Z,16.11
2022-09-12T19:46:56.429Z,16.08
2022-09-12T19:49:25.042Z,16.04
2022-09-12T19:51:53.565Z,15.99
2022-09-12T19:54:22.478Z,15.95
2022-09-12T19:56:52.515Z,15.91
2022-09-12T19:59:23.765Z,15.90
2022-09-12T20:01:54.593Z,15.89
2022-09-12T20:04:23.918Z,15.90
2022-09-12T20:06:52.730Z,15.97
2022-09-12T20:09:26.362Z,16.01
2022-09-12T20:11:56.619Z,16.08
2022-09-12T20:14:25.191Z,16.07
2022-09-12T20:16:53.675Z,16.07
2022-09-12T20:19:24.714Z,16.12
2022-09-12T20:21:55.692Z,16.12
2022-09-12T20:24:24.017Z,16.12
2022-09-12T20:26:52.361Z,16.09
2022-09-12T20:29:22.940Z,16.08
2022-09-12T20:31:52.380Z,16.12
2022-09-12T20:34:22.470Z,16.14
2022-09-12T20:36:51.551Z,16.17
2022-09-12T20:39:23.961Z,16.21
2022-09-12T20:41:53.029Z,16.24
2022-09-12T20:44:23.031Z,16.21
2022-09-12T20:46:51.950Z,16.21
2022-09-12T20:49:20.465Z,16.22
2022-09-12T20:51:49.623Z,16.19
2022-09-12T20:54:25.055Z,16.19
2022-09-12T20:56:53.448Z,16.22
2022-09-12T20:59:23.893Z,16.20
2022-09-12T21:01:52.658Z,16.19
2022-09-12T21:04:25.583Z,16.16
2022-09-12T21:06:56.105Z,16.13
2022-09-12T21:09:24.411Z,16.12
2022-09-12T21:11:52.758Z,16.09
2022-09-12T21:14:30.867Z,16.10
2022-09-12T21:16:59.647Z,16.12
2022-09-12T21:19:28.109Z,16.16
2022-09-12T21:21:56.382Z,16.18
2022-09-12T21:24:25.682Z,16.19
2022-09-12T21:26:54.616Z,16.16
2022-09-12T21:29:27.216Z,16.20
2022-09-12T21:31:56.132Z,16.21
2022-09-12T21:34:24.360Z,16.18
2022-09-12T21:36:53.033Z,16.16
2022-09-12T21:39:21.714Z,16.13
2022-09-12T21:41:50.360Z,16.13
2022-09-12T21:44:19.452Z,16.11
2022-09-12T21:46:49.284Z,16.12
2022-09-12T21:49:17.768Z,16.09
2022-09-12T21:51:46.277Z,16.04
2022-09-12T21:54:15.525Z,15.99
2022-09-12T21:56:46.997Z,15.97
2022-09-12T21:59:15.613Z,15.95
2022-09-12T22:01:44.739Z,15.97
2022-09-12T22:04:14.775Z,15.95
2022-09-12T22:06:43.402Z,16.01
2022-09-12T22:09:11.861Z,16.02
2022-09-12T22:11:41.655Z,16.02
2022-09-12T22:14:10.022Z,15.92
2022-09-12T22:16:38.634Z,15.87
2022-09-12T22:19:08.769Z,15.84
2022-09-12T22:21:58.529Z,15.72
2022-09-12T22:24:29.246Z,15.63
2022-09-12T22:27:00.357Z,15.56
2022-09-12T22:29:29.004Z,15.54
2022-09-12T22:31:59.406Z,15.54
2022-09-12T22:34:29.067Z,15.51
2022-09-12T22:36:59.090Z,15.43
2022-09-12T22:39:27.615Z,15.41
2022-09-12T22:41:56.409Z,15.43
2022-09-12T22:44:24.876Z,15.42
2022-09-12T22:46:53.217Z,15.39
2022-09-12T22:49:21.749Z,15.34
2022-09-12T22:51:50.319Z,15.30
2022-09-12T22:54:20.430Z,15.34
2022-09-12T22:56:49.008Z,15.34
2022-09-12T22:59:18.154Z,15.41
2022-09-12T23:01:47.021Z,15.54
2022-09-12T23:04:15.411Z,15.62
2022-09-12T23:06:44.202Z,15.58
2022-09-12T23:09:13.069Z,15.59
2022-09-12T23:11:43.258Z,15.60
2022-09-12T23:14:12.030Z,15.61
2022-09-12T23:16:43.290Z,15.63
2022-09-12T23:19:12.784Z,15.61
2022-09-12T23:21:41.278Z,15.55
2022-09-12T23:24:09.807Z,15.55
2022-09-12T23:26:38.646Z,15.60
2022-09-12T23:29:08.968Z,15.66
2022-09-12T23:31:37.857Z,15.61
2022-09-12T23:34:08.102Z,15.56
2022-09-12T23:36:36.726Z,15.56
2022-09-12T23:39:05.514Z,15.60
2022-09-12T23:41:38.328Z,15.60
2022-09-12T23:44:08.581Z,15.63
2022-09-12T23:46:39.881Z,15.62
2022-09-12T23:49:09.243Z,15.61
2022-09-12T23:51:37.756Z,15.62
2022-09-12T23:54:06.190Z,15.60
2022-09-12T23:56:34.439Z,15.61
2022-09-12T23:59:05.403Z,15.61
